sensor_id;sensor_type;location;lat;lon;timestamp;pressure;altitude;pressure_sealevel;temperature;humidity
23229;BME280;11783;50.350;6.576;2024-03-08T00:00:08;96109.38;;;-0.02;100.00
23229;BME280;11783;50.350;6.576;2024-03-08T00:02:40;96111.63;;;-0.13;100.00
23229;BME280;11783;50.350;6.576;2024-03-08T00:05:07;96106.06;;;-0.10;100.00
23229;BME280;11783;50.350;6.576;2024-03-08T00:07:35;96102.88;;;-0.06;100.00
23229;BME280;11783;50.350;6.576;2024-03-08T00:10:02;96102.72;;;-0.04;100.00
23229;BME280;11783;50.350;6.576;2024-03-08T00:12:27;96104.81;;;0.01;100.00
23229;BME280;11783;50.350;6.576;2024-03-08T00:14:53;96101.72;;;-0.03;100.00
23229;BME280;11783;50.350;6.576;2024-03-08T00:17:20;96098.47;;;-0.05;100.00
23229;BME280;11783;50.350;6.576;2024-03-08T00:19:48;96093.91;;;-0.18;100.00
23229;BME280;11783;50.350;6.576;2024-03-08T00:22:15;96091.44;;;-0.34;100.00
23229;BME280;11783;50.350;6.576;2024-03-08T00:24:41;96088.91;;;-0.42;100.00
23229;BME280;11783;50.350;6.576;2024-03-08T00:27:07;96083.84;;;-0.44;100.00
23229;BME280;11783;50.350;6.576;2024-03-08T00:29:34;96088.34;;;-0.52;100.00
23229;BME280;11783;50.350;6.576;2024-03-08T00:31:59;96081.78;;;-0.48;100.00
23229;BME280;11783;50.350;6.576;2024-03-08T00:34:26;96078.81;;;-0.45;100.00
23229;BME280;11783;50.350;6.576;2024-03-08T00:36:51;96083.94;;;-0.52;100.00
23229;BME280;11783;50.350;6.576;2024-03-08T00:39:18;96079.19;;;-0.48;100.00
23229;BME280;11783;50.350;6.576;2024-03-08T00:41:45;96083.94;;;-0.52;100.00
23229;BME280;11783;50.350;6.576;2024-03-08T00:44:10;96081.25;;;-0.44;100.00
23229;BME280;11783;50.350;6.576;2024-03-08T00:46:36;96073.22;;;-0.42;100.00
23229;BME280;11783;50.350;6.576;2024-03-08T00:49:01;96069.00;;;-0.43;100.00
23229;BME280;11783;50.350;6.576;2024-03-08T00:51:27;96062.34;;;-0.46;100.00
23229;BME280;11783;50.350;6.576;2024-03-08T00:53:52;96064.69;;;-0.51;100.00
23229;BME280;11783;50.350;6.576;2024-03-08T00:56:17;96061.91;;;-0.49;100.00
23229;BME280;11783;50.350;6.576;2024-03-08T00:58:43;96057.22;;;-0.54;100.00
23229;BME280;11783;50.350;6.576;2024-03-08T01:01:08;96061.16;;;-0.58;100.00
23229;BME280;11783;50.350;6.576;2024-03-08T01:03:36;96060.81;;;-0.55;100.00
23229;BME280;11783;50.350;6.576;2024-03-08T01:06:01;96059.81;;;-0.54;100.00
23229;BME280;11783;50.350;6.576;2024-03-08T01:08:27;96058.28;;;-0.48;100.00
23229;BME280;11783;50.350;6.576;2024-03-08T01:10:53;96053.13;;;-0.56;100.00
23229;BME280;11783;50.350;6.576;2024-03-08T01:13:18;96056.84;;;-0.51;100.00
23229;BME280;11783;50.350;6.576;2024-03-08T01:15:44;96058.34;;;-0.56;100.00
23229;BME280;11783;50.350;6.576;2024-03-08T01:18:11;96046.66;;;-0.61;100.00
23229;BME280;11783;50.350;6.576;2024-03-08T01:20:36;96038.81;;;-0.61;100.00
23229;BME280;11783;50.350;6.576;2024-03-08T01:23:02;96042.53;;;-0.55;100.00
23229;BME280;11783;50.350;6.576;2024-03-08T01:25:28;96036.41;;;-0.47;100.00
23229;BME280;11783;50.350;6.576;2024-03-08T01:27:54;96039.38;;;-0.50;100.00
23229;BME280;11783;50.350;6.576;2024-03-08T01:30:19;96029.50;;;-0.55;100.00
23229;BME280;11783;50.350;6.576;2024-03-08T01:32:45;96027.38;;;-0.59;100.00
23229;BME280;11783;50.350;6.576;2024-03-08T01:35:11;96025.13;;;-0.63;100.00
23229;BME280;11783;50.350;6.576;2024-03-08T01:37:37;96013.28;;;-0.50;100.00
23229;BME280;11783;50.350;6.576;2024-03-08T01:40:03;96012.09;;;-0.48;100.00
23229;BME280;11783;50.350;6.576;2024-03-08T01:42:29;96013.28;;;-0.50;100.00
23229;BME280;11783;50.350;6.576;2024-03-08T01:44:54;96003.66;;;-0.50;100.00
23229;BME280;11783;50.350;6.576;2024-03-08T01:47:21;96002.22;;;-0.52;100.00
23229;BME280;11783;50.350;6.576;2024-03-08T01:49:49;95998.88;;;-0.46;100.00
23229;BME280;11783;50.350;6.576;2024-03-08T01:52:15;95995.28;;;-0.45;100.00
23229;BME280;11783;50.350;6.576;2024-03-08T01:54:41;95992.66;;;-0.45;100.00
23229;BME280;11783;50.350;6.576;2024-03-08T01:57:07;95989.06;;;-0.44;100.00
23229;BME280;11783;50.350;6.576;2024-03-08T01:59:33;95989.41;;;-0.47;100.00
23229;BME280;11783;50.350;6.576;2024-03-08T02:02:01;95978.72;;;-0.52;100.00
23229;BME280;11783;50.350;6.576;2024-03-08T02:04:29;95971.41;;;-0.42;100.00
23229;BME280;11783;50.350;6.576;2024-03-08T02:06:56;95975.47;;;-0.40;100.00
23229;BME280;11783;50.350;6.576;2024-03-08T02:09:23;95965.56;;;-0.44;100.00
23229;BME280;11783;50.350;6.576;2024-03-08T02:11:50;95967.28;;;-0.51;100.00
23229;BME280;11783;50.350;6.576;2024-03-08T02:14:17;95972.41;;;-0.43;100.00
23229;BME280;11783;50.350;6.576;2024-03-08T02:16:42;95972.94;;;-0.48;100.00
23229;BME280;11783;50.350;6.576;2024-03-08T02:19:07;95966.19;;;-0.42;100.00
23229;BME280;11783;50.350;6.576;2024-03-08T02:21:35;95959.47;;;-0.51;100.00
23229;BME280;11783;50.350;6.576;2024-03-08T02:24:01;95959.81;;;-0.54;100.00
23229;BME280;11783;50.350;6.576;2024-03-08T02:26:26;95955.75;;;-0.57;100.00
23229;BME280;11783;50.350;6.576;2024-03-08T02:28:52;95964.31;;;-0.48;100.00
23229;BME280;11783;50.350;6.576;2024-03-08T02:31:17;95952.97;;;-0.55;100.00
23229;BME280;11783;50.350;6.576;2024-03-08T02:33:43;95953.06;;;-0.64;100.00
23229;BME280;11783;50.350;6.576;2024-03-08T02:36:09;95952.69;;;-0.61;100.00
23229;BME280;11783;50.350;6.576;2024-03-08T02:38:34;95949.38;;;-0.54;100.00
23229;BME280;11783;50.350;6.576;2024-03-08T02:41:00;95946.28;;;-0.58;100.00
23229;BME280;11783;50.350;6.576;2024-03-08T02:43:25;95948.91;;;-0.58;100.00
23229;BME280;11783;50.350;6.576;2024-03-08T02:45:51;95939.13;;;-0.71;100.00
23229;BME280;11783;50.350;6.576;2024-03-08T02:48:18;95937.84;;;-0.75;100.00
23229;BME280;11783;50.350;6.576;2024-03-08T02:50:43;95939.94;;;-0.70;100.00
23229;BME280;11783;50.350;6.576;2024-03-08T02:53:10;95935.06;;;-0.73;100.00
23229;BME280;11783;50.350;6.576;2024-03-08T02:55:41;95935.94;;;-0.81;100.00
23229;BME280;11783;50.350;6.576;2024-03-08T02:58:07;95933.06;;;-0.86;100.00
23229;BME280;11783;50.350;6.576;2024-03-08T03:00:36;95934.69;;;-0.85;100.00
23229;BME280;11783;50.350;6.576;2024-03-08T03:03:04;95934.59;;;-0.77;100.00
23229;BME280;11783;50.350;6.576;2024-03-08T03:05:30;95932.53;;;-0.81;100.00
23229;BME280;11783;50.350;6.576;2024-03-08T03:07:55;95929.13;;;-0.82;100.00
23229;BME280;11783;50.350;6.576;2024-03-08T03:10:21;95928.94;;;-0.80;100.00
23229;BME280;11783;50.350;6.576;2024-03-08T03:12:47;95928.22;;;-0.74;100.00
23229;BME280;11783;50.350;6.576;2024-03-08T03:15:17;95921.91;;;-0.80;100.00
23229;BME280;11783;50.350;6.576;2024-03-08T03:17:50;95921.47;;;-0.69;100.00
23229;BME280;11783;50.350;6.576;2024-03-08T03:20:19;95926.97;;;-0.64;100.00
23229;BME280;11783;50.350;6.576;2024-03-08T03:23:06;95917.63;;;-0.73;100.00
23229;BME280;11783;50.350;6.576;2024-03-08T03:25:33;95918.94;;;-0.77;100.00
23229;BME280;11783;50.350;6.576;2024-03-08T03:28:00;95920.84;;;-0.85;100.00
23229;BME280;11783;50.350;6.576;2024-03-08T03:30:26;95912.19;;;-0.86;100.00
23229;BME280;11783;50.350;6.576;2024-03-08T03:32:52;95910.13;;;-0.90;100.00
23229;BME280;11783;50.350;6.576;2024-03-08T03:35:18;95901.59;;;-0.84;100.00
23229;BME280;11783;50.350;6.576;2024-03-08T03:37:45;95907.34;;;-0.89;100.00
23229;BME280;11783;50.350;6.576;2024-03-08T03:40:27;95910.66;;;-0.95;100.00
23229;BME280;11783;50.350;6.576;2024-03-08T03:42:52;95906.44;;;-0.96;100.00
23229;BME280;11783;50.350;6.576;2024-03-08T03:45:17;95903.75;;;-0.88;100.00
23229;BME280;11783;50.350;6.576;2024-03-08T03:47:45;95896.91;;;-0.89;100.00
23229;BME280;11783;50.350;6.576;2024-03-08T03:50:11;95898.72;;;-0.89;100.00
23229;BME280;11783;50.350;6.576;2024-03-08T03:52:36;95901.13;;;-0.88;100.00
23229;BME280;11783;50.350;6.576;2024-03-08T03:55:02;95890.78;;;-0.81;100.00
23229;BME280;11783;50.350;6.576;2024-03-08T03:57:29;95896.81;;;-0.81;100.00
23229;BME280;11783;50.350;6.576;2024-03-08T03:59:55;95892.69;;;-0.90;100.00
23229;BME280;11783;50.350;6.576;2024-03-08T04:02:20;95886.03;;;-0.93;100.00
23229;BME280;11783;50.350;6.576;2024-03-08T04:04:47;95885.94;;;-0.84;100.00
23229;BME280;11783;50.350;6.576;2024-03-08T04:07:13;95885.03;;;-0.92;100.00
23229;BME280;11783;50.350;6.576;2024-03-08T04:09:38;95882.25;;;-0.90;100.00
23229;BME280;11783;50.350;6.576;2024-03-08T04:12:04;95880.53;;;-0.98;100.00
23229;BME280;11783;50.350;6.576;2024-03-08T04:14:29;95880.72;;;-0.99;100.00
23229;BME280;11783;50.350;6.576;2024-03-08T04:16:55;95884.94;;;-0.98;100.00
23229;BME280;11783;50.350;6.576;2024-03-08T04:19:20;95877.38;;;-0.93;100.00
23229;BME280;11783;50.350;6.576;2024-03-08T04:21:46;95876.47;;;-1.00;100.00
23229;BME280;11783;50.350;6.576;2024-03-08T04:24:12;95874.50;;;-0.98;100.00
23229;BME280;11783;50.350;6.576;2024-03-08T04:26:37;95874.25;;;-1.03;100.00
23229;BME280;11783;50.350;6.576;2024-03-08T04:29:03;95873.88;;;-1.00;100.00
23229;BME280;11783;50.350;6.576;2024-03-08T04:31:28;95884.31;;;-1.00;100.00
23229;BME280;11783;50.350;6.576;2024-03-08T04:33:56;95868.75;;;-1.08;100.00
23229;BME280;11783;50.350;6.576;2024-03-08T04:36:21;95859.84;;;-0.99;100.00
23229;BME280;11783;50.350;6.576;2024-03-08T04:38:47;95865.22;;;-1.15;100.00
23229;BME280;11783;50.350;6.576;2024-03-08T04:41:12;95870.00;;;-1.19;100.00
23229;BME280;11783;50.350;6.576;2024-03-08T04:43:38;95864.25;;;-1.29;100.00
23229;BME280;11783;50.350;6.576;2024-03-08T04:46:04;95866.03;;;-1.30;100.00
23229;BME280;11783;50.350;6.576;2024-03-08T04:48:39;95864.69;;;-1.26;100.00
23229;BME280;11783;50.350;6.576;2024-03-08T04:51:04;95859.75;;;-1.20;100.00
23229;BME280;11783;50.350;6.576;2024-03-08T04:53:30;95862.34;;;-1.20;100.00
23229;BME280;11783;50.350;6.576;2024-03-08T04:55:57;95859.75;;;-1.20;100.00
23229;BME280;11783;50.350;6.576;2024-03-08T04:58:23;95858.03;;;-1.28;100.00
23229;BME280;11783;50.350;6.576;2024-03-08T05:00:48;95858.66;;;-1.26;100.00
23229;BME280;11783;50.350;6.576;2024-03-08T05:03:14;95859.03;;;-1.29;100.00
23229;BME280;11783;50.350;6.576;2024-03-08T05:05:39;95855.13;;;-1.33;100.00
23229;BME280;11783;50.350;6.576;2024-03-08T05:08:05;95849.38;;;-1.43;100.00
23229;BME280;11783;50.350;6.576;2024-03-08T05:10:31;95850.19;;;-1.43;100.00
23229;BME280;11783;50.350;6.576;2024-03-08T05:12:58;95853.16;;;-1.46;100.00
23229;BME280;11783;50.350;6.576;2024-03-08T05:15:24;95859.69;;;-1.50;100.00
23229;BME280;11783;50.350;6.576;2024-03-08T05:20:36;95860.13;;;-1.61;100.00
23229;BME280;11783;50.350;6.576;2024-03-08T05:23:02;95857.41;;;-1.68;100.00
23229;BME280;11783;50.350;6.576;2024-03-08T05:25:28;95850.44;;;-1.67;100.00
23229;BME280;11783;50.350;6.576;2024-03-08T05:27:53;95859.19;;;-1.68;100.00
23229;BME280;11783;50.350;6.576;2024-03-08T05:30:19;95850.44;;;-1.67;100.00
23229;BME280;11783;50.350;6.576;2024-03-08T05:32:46;95855.34;;;-1.72;100.00
23229;BME280;11783;50.350;6.576;2024-03-08T05:35:12;95852.19;;;-1.68;100.00
23229;BME280;11783;50.350;6.576;2024-03-08T05:37:38;95847.69;;;-1.74;100.00
23229;BME280;11783;50.350;6.576;2024-03-08T05:40:05;95846.63;;;-1.79;100.00
23229;BME280;11783;50.350;6.576;2024-03-08T05:42:38;95845.28;;;-1.75;100.00
23229;BME280;11783;50.350;6.576;2024-03-08T05:45:04;95849.41;;;-1.81;100.00
23229;BME280;11783;50.350;6.576;2024-03-08T05:47:29;95843.66;;;-1.76;100.00
23229;BME280;11783;50.350;6.576;2024-03-08T05:49:55;95840.94;;;-1.83;100.00
23229;BME280;11783;50.350;6.576;2024-03-08T05:52:20;95840.31;;;-1.85;100.00
23229;BME280;11783;50.350;6.576;2024-03-08T05:54:46;95835.09;;;-1.85;100.00
23229;BME280;11783;50.350;6.576;2024-03-08T05:57:12;95830.72;;;-1.85;100.00
23229;BME280;11783;50.350;6.576;2024-03-08T05:59:39;95831.25;;;-1.74;100.00
23229;BME280;11783;50.350;6.576;2024-03-08T06:02:05;95830.81;;;-1.78;100.00
23229;BME280;11783;50.350;6.576;2024-03-08T06:04:30;95832.25;;;-1.75;100.00
23229;BME280;11783;50.350;6.576;2024-03-08T06:06:56;95829.28;;;-1.72;100.00
23229;BME280;11783;50.350;6.576;2024-03-08T06:09:24;95830.91;;;-1.71;100.00
23229;BME280;11783;50.350;6.576;2024-03-08T06:11:50;95830.13;;;-1.57;100.00
23229;BME280;11783;50.350;6.576;2024-03-08T06:14:15;95826.34;;;-1.55;100.00
23229;BME280;11783;50.350;6.576;2024-03-08T06:16:46;95832.72;;;-1.57;100.00
23229;BME280;11783;50.350;6.576;2024-03-08T06:19:13;95829.13;;;-1.56;100.00
23229;BME280;11783;50.350;6.576;2024-03-08T06:21:39;95823.03;;;-1.63;100.00
23229;BME280;11783;50.350;6.576;2024-03-08T06:24:04;95821.88;;;-1.61;100.00
23229;BME280;11783;50.350;6.576;2024-03-08T06:26:30;95821.91;;;-1.69;100.00
23229;BME280;11783;50.350;6.576;2024-03-08T06:28:56;95820.78;;;-1.66;100.00
23229;BME280;11783;50.350;6.576;2024-03-08T06:31:21;95821.78;;;-1.67;100.00
23229;BME280;11783;50.350;6.576;2024-03-08T06:33:47;95824.09;;;-1.58;100.00
23229;BME280;11783;50.350;6.576;2024-03-08T06:36:16;95823.75;;;-1.55;100.00
23229;BME280;11783;50.350;6.576;2024-03-08T06:38:44;95821.53;;;-1.43;100.00
23229;BME280;11783;50.350;6.576;2024-03-08T06:41:11;95821.16;;;-1.40;100.00
23229;BME280;11783;50.350;6.576;2024-03-08T06:43:44;95823.53;;;-1.30;100.00
23229;BME280;11783;50.350;6.576;2024-03-08T06:46:10;95827.19;;;-1.39;100.00
23229;BME280;11783;50.350;6.576;2024-03-08T06:48:38;95824.03;;;-1.35;100.00
23229;BME280;11783;50.350;6.576;2024-03-08T06:51:04;95830.19;;;-1.28;100.00
23229;BME280;11783;50.350;6.576;2024-03-08T06:53:30;95822.25;;;-1.19;100.00
23229;BME280;11783;50.350;6.576;2024-03-08T06:55:56;95816.84;;;-1.18;100.00
23229;BME280;11783;50.350;6.576;2024-03-08T06:58:22;95817.59;;;-1.09;100.00
23229;BME280;11783;50.350;6.576;2024-03-08T07:00:48;95812.72;;;-0.98;100.00
23229;BME280;11783;50.350;6.576;2024-03-08T07:03:17;95818.09;;;-0.99;100.00
23229;BME280;11783;50.350;6.576;2024-03-08T07:05:42;95810.03;;;-0.89;100.00
23229;BME280;11783;50.350;6.576;2024-03-08T07:08:08;95818.72;;;-0.82;100.00
23229;BME280;11783;50.350;6.576;2024-03-08T07:10:33;95819.03;;;-0.92;100.00
23229;BME280;11783;50.350;6.576;2024-03-08T07:13:00;95814.31;;;-0.82;100.00
23229;BME280;11783;50.350;6.576;2024-03-08T07:15:27;95805.41;;;-0.73;100.00
23229;BME280;11783;50.350;6.576;2024-03-08T07:17:53;95801.34;;;-0.75;100.00
23229;BME280;11783;50.350;6.576;2024-03-08T07:20:19;95802.06;;;-0.67;100.00
23229;BME280;11783;50.350;6.576;2024-03-08T07:22:48;95796.38;;;-0.55;100.00
23229;BME280;11783;50.350;6.576;2024-03-08T07:25:15;95792.41;;;-0.51;100.00
23229;BME280;11783;50.350;6.576;2024-03-08T07:27:54;95803.66;;;-0.51;100.00
23229;BME280;11783;50.350;6.576;2024-03-08T07:30:24;95791.53;;;-0.37;100.00
23229;BME280;11783;50.350;6.576;2024-03-08T07:33:08;95787.63;;;-0.26;100.00
23229;BME280;11783;50.350;6.576;2024-03-08T07:35:37;95780.72;;;-0.34;100.00
23229;BME280;11783;50.350;6.576;2024-03-08T07:38:09;95782.22;;;-0.25;100.00
23229;BME280;11783;50.350;6.576;2024-03-08T07:40:39;95778.13;;;-0.13;100.00
23229;BME280;11783;50.350;6.576;2024-03-08T07:43:07;95782.00;;;-0.02;100.00
23229;BME280;11783;50.350;6.576;2024-03-08T07:45:32;95778.84;;;0.03;100.00
23229;BME280;11783;50.350;6.576;2024-03-08T07:47:58;95786.97;;;0.14;100.00
23229;BME280;11783;50.350;6.576;2024-03-08T07:50:23;95778.22;;;0.22;100.00
23229;BME280;11783;50.350;6.576;2024-03-08T07:52:49;95773.06;;;0.35;100.00
23229;BME280;11783;50.350;6.576;2024-03-08T07:55:14;95780.41;;;0.53;100.00
23229;BME280;11783;50.350;6.576;2024-03-08T07:57:40;95777.94;;;0.73;100.00
23229;BME280;11783;50.350;6.576;2024-03-08T08:00:06;95769.38;;;0.92;100.00
23229;BME280;11783;50.350;6.576;2024-03-08T08:02:34;95775.56;;;1.26;100.00
23229;BME280;11783;50.350;6.576;2024-03-08T08:05:00;95767.97;;;1.37;100.00
23229;BME280;11783;50.350;6.576;2024-03-08T08:07:26;95765.41;;;1.64;100.00
23229;BME280;11783;50.350;6.576;2024-03-08T08:09:53;95759.22;;;1.91;100.00
23229;BME280;11783;50.350;6.576;2024-03-08T08:12:18;95750.94;;;2.14;100.00
23229;BME280;11783;50.350;6.576;2024-03-08T08:14:43;95751.56;;;2.42;100.00
23229;BME280;11783;50.350;6.576;2024-03-08T08:17:09;95753.56;;;2.60;100.00
23229;BME280;11783;50.350;6.576;2024-03-08T08:19:34;95744.84;;;2.60;100.00
23229;BME280;11783;50.350;6.576;2024-03-08T08:22:04;95747.25;;;2.74;100.00
23229;BME280;11783;50.350;6.576;2024-03-08T08:24:29;95744.41;;;2.76;100.00
23229;BME280;11783;50.350;6.576;2024-03-08T08:26:54;95749.81;;;3.01;100.00
23229;BME280;11783;50.350;6.576;2024-03-08T08:29:21;95745.88;;;3.23;100.00
23229;BME280;11783;50.350;6.576;2024-03-08T08:31:48;95735.59;;;3.60;100.00
23229;BME280;11783;50.350;6.576;2024-03-08T08:34:16;95729.63;;;3.78;100.00
23229;BME280;11783;50.350;6.576;2024-03-08T08:36:45;95724.34;;;4.09;100.00
23229;BME280;11783;50.350;6.576;2024-03-08T08:39:10;95721.59;;;4.22;100.00
23229;BME280;11783;50.350;6.576;2024-03-08T08:41:39;95722.91;;;4.13;100.00
23229;BME280;11783;50.350;6.576;2024-03-08T08:44:09;95722.25;;;4.18;100.00
23229;BME280;11783;50.350;6.576;2024-03-08T08:46:38;95727.66;;;4.23;100.00
23229;BME280;11783;50.350;6.576;2024-03-08T08:49:05;95718.41;;;4.39;100.00
23229;BME280;11783;50.350;6.576;2024-03-08T08:51:34;95717.84;;;4.37;100.00
23229;BME280;11783;50.350;6.576;2024-03-08T08:54:00;95709.72;;;4.38;100.00
23229;BME280;11783;50.350;6.576;2024-03-08T08:56:25;95707.19;;;4.50;100.00
23229;BME280;11783;50.350;6.576;2024-03-08T08:58:52;95703.97;;;4.48;100.00
23229;BME280;11783;50.350;6.576;2024-03-08T09:01:20;95708.00;;;4.50;100.00
23229;BME280;11783;50.350;6.576;2024-03-08T09:03:46;95691.78;;;4.53;100.00
23229;BME280;11783;50.350;6.576;2024-03-08T09:06:12;95699.97;;;3.95;100.00
23229;BME280;11783;50.350;6.576;2024-03-08T09:08:41;95697.88;;;3.79;100.00
23229;BME280;11783;50.350;6.576;2024-03-08T09:11:08;95696.47;;;4.02;100.00
23229;BME280;11783;50.350;6.576;2024-03-08T09:13:33;95698.25;;;4.08;100.00
23229;BME280;11783;50.350;6.576;2024-03-08T09:15:59;95693.19;;;4.06;100.00
23229;BME280;11783;50.350;6.576;2024-03-08T09:18:26;95687.91;;;4.13;100.00
23229;BME280;11783;50.350;6.576;2024-03-08T09:20:52;95680.16;;;4.18;100.00
23229;BME280;11783;50.350;6.576;2024-03-08T09:23:22;95678.84;;;4.27;100.00
23229;BME280;11783;50.350;6.576;2024-03-08T09:25:47;95672.41;;;4.23;100.00
23229;BME280;11783;50.350;6.576;2024-03-08T09:28:14;95673.81;;;4.25;100.00
23229;BME280;11783;50.350;6.576;2024-03-08T09:30:40;95675.72;;;4.18;100.00
23229;BME280;11783;50.350;6.576;2024-03-08T09:33:06;95669.22;;;4.21;100.00
23229;BME280;11783;50.350;6.576;2024-03-08T09:35:32;95670.59;;;4.23;100.00
23229;BME280;11783;50.350;6.576;2024-03-08T09:37:58;95673.09;;;4.37;100.00
23229;BME280;11783;50.350;6.576;2024-03-08T09:40:24;95669.78;;;4.48;100.00
23229;BME280;11783;50.350;6.576;2024-03-08T09:42:51;95662.81;;;4.53;100.00
23229;BME280;11783;50.350;6.576;2024-03-08T09:45:20;95659.03;;;4.68;100.00
23229;BME280;11783;50.350;6.576;2024-03-08T09:47:50;95662.16;;;4.76;100.00
23229;BME280;11783;50.350;6.576;2024-03-08T09:50:16;95649.78;;;4.95;100.00
23229;BME280;11783;50.350;6.576;2024-03-08T09:52:46;95650.88;;;5.06;100.00
23229;BME280;11783;50.350;6.576;2024-03-08T09:55:12;95640.47;;;5.11;100.00
23229;BME280;11783;50.350;6.576;2024-03-08T09:57:40;95650.69;;;5.19;100.00
23229;BME280;11783;50.350;6.576;2024-03-08T10:00:19;95642.34;;;5.22;100.00
23229;BME280;11783;50.350;6.576;2024-03-08T10:02:50;95632.41;;;5.24;100.00
23229;BME280;11783;50.350;6.576;2024-03-08T10:05:17;95627.41;;;5.46;100.00
23229;BME280;11783;50.350;6.576;2024-03-08T10:07:44;95635.44;;;5.39;100.00
23229;BME280;11783;50.350;6.576;2024-03-08T10:10:10;95627.75;;;5.50;100.00
23229;BME280;11783;50.350;6.576;2024-03-08T10:12:39;95618.72;;;5.57;100.00
23229;BME280;11783;50.350;6.576;2024-03-08T10:15:08;95625.25;;;5.55;100.00
23229;BME280;11783;50.350;6.576;2024-03-08T10:17:37;95621.03;;;5.65;100.00
23229;BME280;11783;50.350;6.576;2024-03-08T10:20:03;95623.41;;;5.55;100.00
23229;BME280;11783;50.350;6.576;2024-03-08T10:22:41;95615.66;;;5.72;100.00
23229;BME280;11783;50.350;6.576;2024-03-08T10:25:11;95607.09;;;5.76;100.00
23229;BME280;11783;50.350;6.576;2024-03-08T10:27:38;95606.97;;;5.83;100.00
23229;BME280;11783;50.350;6.576;2024-03-08T10:30:06;95611.31;;;5.89;100.00
23229;BME280;11783;50.350;6.576;2024-03-08T10:32:33;95611.00;;;6.09;100.00
23229;BME280;11783;50.350;6.576;2024-03-08T10:34:59;95604.59;;;6.17;100.00
23229;BME280;11783;50.350;6.576;2024-03-08T10:37:30;95601.50;;;6.20;100.00
23229;BME280;11783;50.350;6.576;2024-03-08T10:40:04;95604.25;;;6.25;100.00
23229;BME280;11783;50.350;6.576;2024-03-08T10:42:41;95604.09;;;6.43;100.00
23229;BME280;11783;50.350;6.576;2024-03-08T10:45:38;95592.28;;;6.57;100.00
23229;BME280;11783;50.350;6.576;2024-03-08T10:50:41;95590.78;;;6.50;100.00
23229;BME280;11783;50.350;6.576;2024-03-08T10:53:11;95592.38;;;6.62;100.00
23229;BME280;11783;50.350;6.576;2024-03-08T10:55:39;95592.59;;;6.73;100.00
23229;BME280;11783;50.350;6.576;2024-03-08T10:58:06;95584.50;;;6.79;100.00
23229;BME280;11783;50.350;6.576;2024-03-08T11:00:33;95576.69;;;6.84;100.00
23229;BME280;11783;50.350;6.576;2024-03-08T11:02:59;95579.00;;;6.81;100.00
23229;BME280;11783;50.350;6.576;2024-03-08T11:05:36;95570.31;;;6.97;100.00
23229;BME280;11783;50.350;6.576;2024-03-08T11:08:25;95570.97;;;7.04;100.00
23229;BME280;11783;50.350;6.576;2024-03-08T11:10:53;95567.97;;;7.12;100.00
23229;BME280;11783;50.350;6.576;2024-03-08T11:13:37;95560.59;;;7.14;100.00
23229;BME280;11783;50.350;6.576;2024-03-08T11:16:10;95559.00;;;7.13;100.00
23229;BME280;11783;50.350;6.576;2024-03-08T11:18:37;95557.81;;;7.21;100.00
23229;BME280;11783;50.350;6.576;2024-03-08T11:21:09;95548.13;;;7.26;100.00
23229;BME280;11783;50.350;6.576;2024-03-08T11:23:38;95549.75;;;7.27;100.00
23229;BME280;11783;50.350;6.576;2024-03-08T11:26:26;95548.47;;;7.30;100.00
23229;BME280;11783;50.350;6.576;2024-03-08T11:28:51;95547.00;;;7.39;100.00
23229;BME280;11783;50.350;6.576;2024-03-08T11:33:46;95539.88;;;7.40;100.00
23229;BME280;11783;50.350;6.576;2024-03-08T11:36:20;95546.78;;;7.57;100.00
23229;BME280;11783;50.350;6.576;2024-03-08T11:38:48;95533.88;;;7.61;100.00
23229;BME280;11783;50.350;6.576;2024-03-08T11:41:19;95529.84;;;7.92;100.00
23229;BME280;11783;50.350;6.576;2024-03-08T11:43:48;95527.78;;;8.16;100.00
23229;BME280;11783;50.350;6.576;2024-03-08T11:46:15;95525.84;;;8.28;100.00
23229;BME280;11783;50.350;6.576;2024-03-08T11:48:41;95526.06;;;8.43;100.00
23229;BME280;11783;50.350;6.576;2024-03-08T11:51:08;95516.94;;;8.34;100.00
23229;BME280;11783;50.350;6.576;2024-03-08T11:53:34;95518.53;;;8.35;100.00
23229;BME280;11783;50.350;6.576;2024-03-08T11:56:19;95519.34;;;8.36;100.00
23229;BME280;11783;50.350;6.576;2024-03-08T11:58:53;95518.69;;;8.29;100.00
23229;BME280;11783;50.350;6.576;2024-03-08T12:01:21;95521.53;;;8.39;100.00
23229;BME280;11783;50.350;6.576;2024-03-08T12:03:52;95518.19;;;8.32;100.00
23229;BME280;11783;50.350;6.576;2024-03-08T12:06:18;95508.94;;;8.51;100.00
23229;BME280;11783;50.350;6.576;2024-03-08T12:08:43;95500.38;;;8.66;100.00
23229;BME280;11783;50.350;6.576;2024-03-08T12:11:14;95509.41;;;8.70;100.00
23229;BME280;11783;50.350;6.576;2024-03-08T12:13:41;95501.03;;;8.78;100.00
23229;BME280;11783;50.350;6.576;2024-03-08T12:16:07;95502.34;;;9.02;100.00
23229;BME280;11783;50.350;6.576;2024-03-08T12:18:34;95498.19;;;9.12;100.00
23229;BME280;11783;50.350;6.576;2024-03-08T12:21:12;95483.16;;;9.22;100.00
23229;BME280;11783;50.350;6.576;2024-03-08T12:24:05;95482.91;;;9.24;100.00
23229;BME280;11783;50.350;6.576;2024-03-08T12:26:35;95482.28;;;9.12;100.00
23229;BME280;11783;50.350;6.576;2024-03-08T12:29:19;95487.41;;;9.23;100.00
23229;BME280;11783;50.350;6.576;2024-03-08T12:31:51;95481.44;;;9.38;100.00
23229;BME280;11783;50.350;6.576;2024-03-08T12:34:17;95469.34;;;9.52;100.00
23229;BME280;11783;50.350;6.576;2024-03-08T12:36:50;95466.66;;;9.47;100.00
23229;BME280;11783;50.350;6.576;2024-03-08T12:39:20;95473.72;;;9.31;100.00
23229;BME280;11783;50.350;6.576;2024-03-08T12:41:53;95465.19;;;9.66;100.00
23229;BME280;11783;50.350;6.576;2024-03-08T12:44:20;95465.22;;;10.19;100.00
23229;BME280;11783;50.350;6.576;2024-03-08T12:46:47;95468.84;;;10.45;100.00
23229;BME280;11783;50.350;6.576;2024-03-08T12:49:14;95453.22;;;10.74;100.00
23229;BME280;11783;50.350;6.576;2024-03-08T12:51:44;95450.91;;;11.08;100.00
23229;BME280;11783;50.350;6.576;2024-03-08T12:54:11;95442.91;;;11.59;100.00
23229;BME280;11783;50.350;6.576;2024-03-08T12:56:36;95444.19;;;12.02;99.58
23229;BME280;11783;50.350;6.576;2024-03-08T12:59:04;95441.44;;;12.32;98.83
23229;BME280;11783;50.350;6.576;2024-03-08T13:01:31;95438.97;;;12.41;94.79
23229;BME280;11783;50.350;6.576;2024-03-08T13:04:02;95432.53;;;12.52;92.63